createdAt,value
2018-04-26T00:02:06.130Z,21.30
2018-04-26T00:04:33.596Z,21.30
2018-04-26T00:07:01.118Z,21.30
2018-04-26T00:09:28.634Z,21.30
2018-04-26T00:11:57.619Z,21.30
2018-04-26T00:14:25.119Z,21.30
2018-04-26T00:16:52.629Z,21.30
2018-04-26T00:19:20.109Z,21.30
2018-04-26T00:21:47.617Z,21.10
2018-04-26T00:24:15.124Z,21.00
2018-04-26T00:26:42.603Z,20.90
2018-04-26T00:29:10.878Z,21.00
2018-04-26T00:31:39.115Z,20.90
2018-04-26T00:34:06.721Z,20.90
2018-04-26T00:36:34.215Z,21.00
2018-04-26T00:39:01.713Z,21.00
2018-04-26T00:41:29.957Z,21.20
2018-04-26T00:43:57.539Z,21.20
2018-04-26T00:46:26.588Z,20.90
2018-04-26T00:48:54.099Z,20.90
2018-04-26T00:51:34.147Z,21.00
2018-04-26T00:54:01.665Z,21.00
2018-04-26T00:56:29.156Z,21.20
2018-04-26T00:58:56.648Z,21.20
2018-04-26T01:01:24.151Z,21.20
2018-04-26T01:03:51.661Z,21.00
2018-04-26T01:06:19.913Z,21.00
2018-04-26T01:08:47.423Z,21.00
2018-04-26T01:11:14.929Z,20.80
2018-04-26T01:13:42.511Z,20.80
2018-04-26T01:16:10.786Z,20.80
2018-04-26T01:18:39.017Z,20.80
2018-04-26T01:21:06.533Z,20.80
2018-04-26T01:23:34.080Z,20.80
2018-04-26T01:26:02.459Z,20.70
2018-04-26T01:28:30.687Z,20.60
2018-04-26T01:30:58.177Z,20.60
2018-04-26T01:33:26.457Z,20.70
2018-04-26T01:35:54.701Z,20.80
2018-04-26T01:38:23.737Z,20.80
2018-04-26T01:40:52.105Z,20.50
2018-04-26T01:43:20.401Z,20.50
2018-04-26T01:45:47.889Z,20.50
2018-04-26T01:48:15.389Z,20.60
2018-04-26T01:50:43.650Z,20.60
2018-04-26T01:53:11.226Z,20.60
2018-04-26T01:55:38.740Z,20.50
2018-04-26T01:58:06.222Z,20.60
2018-04-26T02:00:33.718Z,20.60
2018-04-26T02:03:02.018Z,20.60
2018-04-26T02:05:29.558Z,20.60
2018-04-26T02:07:57.798Z,20.50
2018-04-26T02:10:26.078Z,20.50
2018-04-26T02:12:53.658Z,20.50
2018-04-26T02:15:21.955Z,20.60
2018-04-26T02:17:49.444Z,20.60
2018-04-26T02:20:16.930Z,20.60
2018-04-26T02:22:44.430Z,20.50
2018-04-26T02:25:11.928Z,20.50
2018-04-26T02:27:39.575Z,20.30
2018-04-26T02:30:07.077Z,20.40
2018-04-26T02:32:35.358Z,20.40
2018-04-26T02:35:03.614Z,20.40
2018-04-26T02:37:31.942Z,20.30
2018-04-26T02:39:59.458Z,20.30
2018-04-26T02:42:26.948Z,20.50
2018-04-26T02:44:54.438Z,20.50
2018-04-26T02:47:21.924Z,20.40
2018-04-26T02:49:50.173Z,20.40
2018-04-26T02:52:17.669Z,20.40
2018-04-26T02:54:45.246Z,20.40
2018-04-26T02:57:12.758Z,20.30
2018-04-26T02:59:40.232Z,20.30
2018-04-26T03:02:08.520Z,20.40
2018-04-26T03:04:36.098Z,20.40
2018-04-26T03:07:04.349Z,20.30
2018-04-26T03:09:32.064Z,20.30
2018-04-26T03:11:59.553Z,20.30
2018-04-26T03:14:27.026Z,20.20
2018-04-26T03:16:54.544Z,20.20
2018-04-26T03:19:22.081Z,20.10
2018-04-26T03:21:49.627Z,20.20
2018-04-26T03:24:17.959Z,20.20
2018-04-26T03:26:45.448Z,20.20
2018-04-26T03:29:14.237Z,20.30
2018-04-26T03:31:42.503Z,20.30
2018-04-26T03:34:10.026Z,20.30
2018-04-26T03:36:37.522Z,20.20
2018-04-26T03:39:05.925Z,20.20
2018-04-26T03:41:34.450Z,20.20
2018-04-26T03:44:01.923Z,20.20
2018-04-26T03:46:29.439Z,20.50
2018-04-26T03:48:56.930Z,20.80
2018-04-26T03:51:24.626Z,21.10
2018-04-26T03:53:52.928Z,21.40
2018-04-26T03:56:20.446Z,21.40
2018-04-26T03:58:47.938Z,21.60
2018-04-26T04:01:27.468Z,21.70
2018-04-26T04:04:06.938Z,21.70
2018-04-26T04:06:34.441Z,21.90
2018-04-26T04:09:02.042Z,22.00
2018-04-26T04:11:29.540Z,22.00
2018-04-26T04:13:57.048Z,22.10
2018-04-26T04:16:24.584Z,22.10
2018-04-26T04:18:52.091Z,22.20
2018-04-26T04:21:19.626Z,22.20
2018-04-26T04:23:47.127Z,22.20
2018-04-26T04:26:14.762Z,22.30
2018-04-26T04:28:42.264Z,22.30
2018-04-26T04:31:09.738Z,22.40
2018-04-26T04:33:37.306Z,22.40
2018-04-26T04:36:05.612Z,22.40
2018-04-26T04:38:33.092Z,22.40
2018-04-26T04:41:00.578Z,22.40
2018-04-26T04:43:28.101Z,22.50
2018-04-26T04:45:55.588Z,22.50
2018-04-26T04:48:23.102Z,22.50
2018-04-26T04:50:50.590Z,22.50
2018-04-26T04:53:18.086Z,22.50
2018-04-26T04:55:46.382Z,22.60
2018-04-26T04:58:13.959Z,22.60
2018-04-26T05:00:41.435Z,22.60
2018-04-26T05:03:08.931Z,22.70
2018-04-26T05:05:36.446Z,22.70
2018-04-26T05:08:03.950Z,22.70
2018-04-26T05:10:32.334Z,22.70
2018-04-26T05:13:00.567Z,22.80
2018-04-26T05:15:28.097Z,22.70
2018-04-26T05:17:55.598Z,22.80
2018-04-26T05:20:23.087Z,22.80
2018-04-26T05:22:51.355Z,22.80
2018-04-26T05:25:18.944Z,22.80
2018-04-26T05:27:46.430Z,22.80
2018-04-26T05:30:13.912Z,22.80
2018-04-26T05:32:41.439Z,22.90
2018-04-26T05:35:08.933Z,22.90
2018-04-26T05:37:36.433Z,22.90
2018-04-26T05:40:03.920Z,22.90
2018-04-26T05:42:31.540Z,22.90
2018-04-26T05:44:59.858Z,22.90
2018-04-26T05:47:27.366Z,22.90
2018-04-26T05:49:54.916Z,22.90
2018-04-26T05:52:23.157Z,22.90
2018-04-26T05:54:50.675Z,22.80
2018-04-26T05:57:18.182Z,22.80
2018-04-26T05:59:45.698Z,22.80
2018-04-26T06:02:13.183Z,22.80
2018-04-26T06:04:40.697Z,22.90
2018-04-26T06:07:08.963Z,23.00
2018-04-26T06:09:37.199Z,23.10
2018-04-26T06:12:04.799Z,23.10
2018-04-26T06:14:33.217Z,23.10
2018-04-26T06:17:00.798Z,23.10
2018-04-26T06:19:28.212Z,23.10
2018-04-26T06:21:56.478Z,23.10
2018-04-26T06:24:24.747Z,23.10
2018-04-26T06:26:53.008Z,23.10
2018-04-26T06:29:20.620Z,23.10
2018-04-26T06:31:48.256Z,23.10
2018-04-26T06:34:16.532Z,23.00
2018-04-26T06:36:44.881Z,23.00
2018-04-26T06:39:12.370Z,23.00
2018-04-26T06:41:39.868Z,23.00
2018-04-26T06:44:07.361Z,23.00
2018-04-26T06:46:35.071Z,23.00
2018-04-26T06:49:02.574Z,23.10
2018-04-26T06:51:30.076Z,23.00
2018-04-26T06:53:57.620Z,23.00
2018-04-26T06:56:25.882Z,23.00
2018-04-26T06:58:53.392Z,23.00
2018-04-26T07:01:20.903Z,23.00
2018-04-26T07:03:48.374Z,23.00
2018-04-26T07:06:16.657Z,23.00
2018-04-26T07:08:44.150Z,23.00
2018-04-26T07:11:11.625Z,23.10
2018-04-26T07:13:39.093Z,23.10
2018-04-26T07:16:06.582Z,23.10
2018-04-26T07:18:34.866Z,23.10
2018-04-26T07:21:02.362Z,23.10
2018-04-26T07:23:29.964Z,23.20
2018-04-26T07:25:57.570Z,23.10
2018-04-26T07:28:25.082Z,23.10
2018-04-26T07:30:52.594Z,23.10
2018-04-26T07:33:20.098Z,23.00
2018-04-26T07:35:47.652Z,23.00
2018-04-26T07:38:15.228Z,23.00
2018-04-26T07:40:43.469Z,23.10
2018-04-26T07:43:10.979Z,23.10
2018-04-26T07:45:39.239Z,23.20
2018-04-26T07:48:07.494Z,23.20
2018-04-26T07:50:34.988Z,23.20
2018-04-26T07:53:02.728Z,23.20
2018-04-26T07:55:30.185Z,23.20
2018-04-26T07:57:58.449Z,23.30
2018-04-26T08:00:25.960Z,23.20
2018-04-26T08:02:54.004Z,23.30
2018-04-26T08:05:21.555Z,23.20
2018-04-26T08:07:49.924Z,23.30
2018-04-26T08:10:18.183Z,23.30
2018-04-26T08:12:45.677Z,23.30
2018-04-26T08:15:13.940Z,23.30
2018-04-26T08:17:42.212Z,23.20
2018-04-26T08:20:10.476Z,23.20
2018-04-26T08:22:39.529Z,23.20
2018-04-26T08:25:07.138Z,23.20
2018-04-26T08:27:34.634Z,23.30
2018-04-26T08:30:02.106Z,23.30
2018-04-26T08:32:29.606Z,23.30
2018-04-26T08:34:57.101Z,23.30
2018-04-26T08:37:24.690Z,23.30
2018-04-26T08:39:52.159Z,23.30
2018-04-26T08:42:19.699Z,23.30
2018-04-26T08:44:47.224Z,23.30
2018-04-26T08:47:15.474Z,23.30
2018-04-26T08:49:43.714Z,23.30
2018-04-26T08:52:11.236Z,23.30
2018-04-26T08:54:39.608Z,23.30
2018-04-26T08:57:07.855Z,23.30
2018-04-26T08:59:36.142Z,23.30
2018-04-26T09:02:03.732Z,23.30
2018-04-26T09:04:31.233Z,23.30
2018-04-26T09:06:58.747Z,23.30
2018-04-26T09:09:27.068Z,23.30
2018-04-26T09:11:54.578Z,23.30
2018-04-26T09:14:22.115Z,23.30
2018-04-26T09:16:49.643Z,23.20
2018-04-26T09:19:17.173Z,23.20
2018-04-26T09:21:44.678Z,23.20
2018-04-26T09:24:12.170Z,23.20
2018-04-26T09:26:40.426Z,23.10
2018-04-26T09:29:08.019Z,23.20
2018-04-26T09:31:35.584Z,23.20
2018-04-26T09:34:03.663Z,23.20
2018-04-26T09:36:31.148Z,23.20
2018-04-26T09:38:58.646Z,23.20
2018-04-26T09:41:26.218Z,23.20
2018-04-26T09:43:53.726Z,23.20
2018-04-26T09:46:21.212Z,23.20
2018-04-26T09:48:49.484Z,23.10
2018-04-26T09:51:17.804Z,23.10
2018-04-26T09:53:45.305Z,23.10
2018-04-26T09:56:12.807Z,23.10
2018-04-26T09:58:40.359Z,23.20
2018-04-26T10:01:09.564Z,23.20
2018-04-26T10:03:38.897Z,23.20
2018-04-26T10:06:25.158Z,23.30
2018-04-26T10:08:52.706Z,23.30
2018-04-26T10:11:20.153Z,23.40
2018-04-26T10:13:48.423Z,23.40
2018-04-26T10:16:15.985Z,23.40
2018-04-26T10:18:44.259Z,23.50
2018-04-26T10:21:12.635Z,23.50
2018-04-26T10:23:40.039Z,23.50
2018-04-26T10:26:07.535Z,23.50
2018-04-26T10:28:35.041Z,23.50
2018-04-26T10:31:02.582Z,23.50
2018-04-26T10:33:30.866Z,23.50
2018-04-26T10:35:59.164Z,23.50
2018-04-26T10:38:26.752Z,23.50
2018-04-26T10:40:54.252Z,23.50
2018-04-26T10:43:22.484Z,23.50
2018-04-26T10:45:50.005Z,23.50
2018-04-26T10:48:17.581Z,23.60
2018-04-26T10:50:45.091Z,23.50
2018-04-26T10:53:12.600Z,23.60
2018-04-26T10:55:40.075Z,23.60
2018-04-26T10:58:07.582Z,23.60
2018-04-26T11:00:35.983Z,23.60
2018-04-26T11:03:03.463Z,23.60
2018-04-26T11:05:30.982Z,23.60
2018-04-26T11:07:59.269Z,23.60
2018-04-26T11:10:26.735Z,23.60
2018-04-26T11:12:54.247Z,23.60
2018-04-26T11:15:21.738Z,23.60
2018-04-26T11:17:49.232Z,23.60
2018-04-26T11:20:16.746Z,23.60
2018-04-26T11:22:45.038Z,23.60
2018-04-26T11:25:12.533Z,23.50
2018-04-26T11:27:40.064Z,23.50
2018-04-26T11:30:07.566Z,23.50
2018-04-26T11:32:36.582Z,23.50
2018-04-26T11:35:04.828Z,23.50
2018-04-26T11:37:32.312Z,23.50
2018-04-26T11:40:00.588Z,23.40
2018-04-26T11:42:28.099Z,23.50
2018-04-26T11:44:55.610Z,23.50
2018-04-26T11:47:23.945Z,23.50
2018-04-26T11:49:51.409Z,23.40
2018-04-26T11:52:18.876Z,23.50
2018-04-26T11:54:46.379Z,23.40
2018-04-26T11:57:14.612Z,23.40
2018-04-26T11:59:42.116Z,23.40
2018-04-26T12:02:09.618Z,23.40
2018-04-26T12:04:37.105Z,23.40
2018-04-26T12:07:05.401Z,23.40
2018-04-26T12:09:33.000Z,23.40
2018-04-26T12:12:00.512Z,23.40
2018-04-26T12:14:28.783Z,23.40
2018-04-26T12:16:57.133Z,23.40
2018-04-26T12:19:24.634Z,23.40
2018-04-26T12:21:52.129Z,23.40
2018-04-26T12:24:19.627Z,23.40
2018-04-26T12:26:47.927Z,23.40
2018-04-26T12:29:15.501Z,23.40
2018-04-26T12:31:43.016Z,23.40
2018-04-26T12:34:11.326Z,23.40
2018-04-26T12:36:38.843Z,23.40
2018-04-26T12:39:06.368Z,23.40
2018-04-26T12:41:33.928Z,23.40
2018-04-26T12:44:01.394Z,23.40
2018-04-26T12:46:28.915Z,23.40
2018-04-26T12:48:56.414Z,23.30
2018-04-26T12:51:23.964Z,23.40
2018-04-26T12:53:51.472Z,23.40
2018-04-26T12:56:19.765Z,23.40
2018-04-26T12:58:48.145Z,23.40
2018-04-26T13:01:15.667Z,23.40
2018-04-26T13:03:43.146Z,23.30
2018-04-26T13:06:11.412Z,23.40
2018-04-26T13:08:38.885Z,23.40
2018-04-26T13:11:07.157Z,23.40
2018-04-26T13:13:35.465Z,23.40
2018-04-26T13:16:02.976Z,23.40
2018-04-26T13:18:30.471Z,23.40
2018-04-26T13:20:57.995Z,23.40
2018-04-26T13:23:25.523Z,23.40
2018-04-26T13:25:52.981Z,23.40
2018-04-26T13:28:20.445Z,23.40
2018-04-26T13:30:47.937Z,23.40
2018-04-26T13:33:16.181Z,23.40
2018-04-26T13:35:44.260Z,23.40
2018-04-26T13:38:11.884Z,23.40
2018-04-26T13:40:39.423Z,23.40
2018-04-26T13:43:06.890Z,23.40
2018-04-26T13:45:34.435Z,23.30
2018-04-26T13:48:01.860Z,23.40
2018-04-26T13:50:29.357Z,23.30
2018-04-26T13:52:56.934Z,23.30
2018-04-26T13:55:24.432Z,23.40
2018-04-26T13:57:51.938Z,23.40
2018-04-26T14:00:19.457Z,23.40
2018-04-26T14:02:47.057Z,23.40
2018-04-26T14:05:14.568Z,23.40
2018-04-26T14:07:42.157Z,23.40
2018-04-26T14:10:10.405Z,23.40
2018-04-26T14:12:37.912Z,23.40
2018-04-26T14:15:06.167Z,23.40
2018-04-26T14:17:34.533Z,23.50
2018-04-26T14:20:02.835Z,23.50
2018-04-26T14:22:30.328Z,23.40
2018-04-26T14:24:57.940Z,23.50
2018-04-26T14:27:26.175Z,23.50
2018-04-26T14:29:53.669Z,23.50
2018-04-26T14:32:21.945Z,23.50
2018-04-26T14:34:50.239Z,23.50
2018-04-26T14:37:17.770Z,23.50
2018-04-26T14:39:46.173Z,23.50
2018-04-26T14:42:13.657Z,23.50
2018-04-26T14:44:41.185Z,23.50
2018-04-26T14:47:09.427Z,23.50
2018-04-26T14:49:36.921Z,23.50
2018-04-26T14:52:05.225Z,23.50
2018-04-26T14:54:32.791Z,23.50
2018-04-26T14:57:00.384Z,23.50
2018-04-26T14:59:27.801Z,23.60
2018-04-26T15:01:55.315Z,23.50
2018-04-26T15:04:22.905Z,23.60
2018-04-26T15:06:50.399Z,23.60
2018-04-26T15:09:18.026Z,23.50
2018-04-26T15:11:45.524Z,23.60
2018-04-26T15:14:13.050Z,23.60
2018-04-26T15:16:40.539Z,23.60
2018-04-26T15:19:08.152Z,23.60
2018-04-26T15:21:35.704Z,23.60
2018-04-26T15:24:03.220Z,23.70
2018-04-26T15:26:30.687Z,23.60
2018-04-26T15:28:58.925Z,23.60
2018-04-26T15:31:26.442Z,23.60
2018-04-26T15:33:54.754Z,23.60
2018-04-26T15:36:22.304Z,23.60
2018-04-26T15:38:49.928Z,23.60
2018-04-26T15:41:17.400Z,23.60
2018-04-26T15:43:45.668Z,23.60
2018-04-26T15:46:13.139Z,23.60
2018-04-26T15:48:41.398Z,23.60
2018-04-26T15:51:09.678Z,23.60
2018-04-26T15:53:49.825Z,23.60
2018-04-26T15:56:29.193Z,23.60
2018-04-26T15:59:08.688Z,23.60
2018-04-26T16:05:16.309Z,23.60
2018-04-26T16:08:01.504Z,23.60
2018-04-26T16:10:47.391Z,23.60
2018-04-26T16:13:33.274Z,23.60
2018-04-26T16:16:28.004Z,23.60
2018-04-26T16:19:04.973Z,23.60
2018-04-26T16:21:45.176Z,23.60
2018-04-26T16:24:30.374Z,23.60
2018-04-26T16:27:15.604Z,23.60
2018-04-26T16:29:54.894Z,23.60
2018-04-26T16:32:38.082Z,23.60
2018-04-26T16:35:20.403Z,23.60
2018-04-26T16:38:05.473Z,23.60
2018-04-26T16:40:32.976Z,23.60
2018-04-26T16:43:00.588Z,23.60
2018-04-26T16:45:28.789Z,23.50
2018-04-26T16:47:56.304Z,23.50
2018-04-26T16:50:23.852Z,23.50
2018-04-26T16:52:51.402Z,23.50
2018-04-26T16:55:18.917Z,23.40
2018-04-26T16:57:46.400Z,23.40
2018-04-26T17:00:13.952Z,23.40
2018-04-26T17:02:42.209Z,23.40
2018-04-26T17:05:09.736Z,23.40
2018-04-26T17:07:37.998Z,23.30
2018-04-26T17:10:05.502Z,23.30
2018-04-26T17:12:34.546Z,23.30
2018-04-26T17:15:02.021Z,23.30
2018-04-26T17:17:29.521Z,23.30
2018-04-26T17:19:57.009Z,23.20
2018-04-26T17:22:24.534Z,23.30
2018-04-26T17:24:52.035Z,23.30
2018-04-26T17:27:19.591Z,23.30
2018-04-26T17:29:47.117Z,23.20
2018-04-26T17:32:15.374Z,23.20
2018-04-26T17:34:43.037Z,23.20
2018-04-26T17:37:10.546Z,23.20
2018-04-26T17:39:38.008Z,23.20
2018-04-26T17:42:05.544Z,23.20
2018-04-26T17:44:33.022Z,23.20
2018-04-26T17:47:00.580Z,23.20
2018-04-26T17:49:28.108Z,23.30
2018-04-26T17:51:55.667Z,23.30
2018-04-26T17:54:23.938Z,23.30
2018-04-26T17:56:52.191Z,23.30
2018-04-26T17:59:19.795Z,23.30
2018-04-26T18:01:47.373Z,23.30
2018-04-26T18:04:14.881Z,23.30
2018-04-26T18:06:42.502Z,23.30
2018-04-26T18:09:09.982Z,23.30
2018-04-26T18:11:37.593Z,23.30
2018-04-26T18:14:05.151Z,23.30
2018-04-26T18:16:32.659Z,23.40
2018-04-26T18:19:00.175Z,23.40
2018-04-26T18:21:27.660Z,23.40
2018-04-26T18:23:55.136Z,23.50
2018-04-26T18:26:22.640Z,23.50
2018-04-26T18:28:50.186Z,23.50
2018-04-26T18:31:18.448Z,23.40
2018-04-26T18:33:46.034Z,23.40
2018-04-26T18:36:13.521Z,23.40
2018-04-26T18:38:41.067Z,23.30
2018-04-26T18:41:08.634Z,23.30
2018-04-26T18:43:36.162Z,23.30
2018-04-26T18:46:04.456Z,23.30
2018-04-26T18:48:31.946Z,23.30
2018-04-26T18:50:59.431Z,23.30
2018-04-26T18:53:26.946Z,23.30
2018-04-26T18:55:54.408Z,23.30
2018-04-26T18:58:21.910Z,23.20
2018-04-26T19:00:49.407Z,23.20
2018-04-26T19:03:17.685Z,23.20
2018-04-26T19:05:45.202Z,23.20
2018-04-26T19:08:13.561Z,23.20
2018-04-26T19:10:41.044Z,23.20
2018-04-26T19:13:08.515Z,23.20
2018-04-26T19:15:36.816Z,23.20
2018-04-26T19:18:04.293Z,23.10
2018-04-26T19:20:31.827Z,23.20
2018-04-26T19:22:59.313Z,23.10
2018-04-26T19:25:26.923Z,23.10
2018-04-26T19:27:55.252Z,23.10
2018-04-26T19:30:22.718Z,23.10
2018-04-26T19:32:50.195Z,23.10
2018-04-26T19:35:17.703Z,23.10
2018-04-26T19:37:45.197Z,23.10
2018-04-26T19:40:12.665Z,23.10
2018-04-26T19:42:40.242Z,23.10
2018-04-26T19:45:07.698Z,23.10
2018-04-26T19:47:35.977Z,23.10
2018-04-26T19:50:04.247Z,23.10
2018-04-26T19:52:32.678Z,23.10
2018-04-26T19:55:00.207Z,23.10
2018-04-26T19:57:27.726Z,23.10
2018-04-26T19:59:55.234Z,23.10
2018-04-26T20:02:22.769Z,23.20
2018-04-26T20:04:51.015Z,23.30
2018-04-26T20:07:18.529Z,23.30
2018-04-26T20:09:45.985Z,23.30
2018-04-26T20:12:13.475Z,23.30
2018-04-26T20:14:40.985Z,23.30
2018-04-26T20:17:09.215Z,23.30
2018-04-26T20:19:36.797Z,23.30
2018-04-26T20:22:04.333Z,23.40
2018-04-26T20:24:31.846Z,23.20
2018-04-26T20:26:59.335Z,22.90
2018-04-26T20:29:26.822Z,22.80
2018-04-26T20:31:54.290Z,22.60
2018-04-26T20:34:21.785Z,22.50
2018-04-26T20:36:49.304Z,22.40
2018-04-26T20:39:16.820Z,22.30
2018-04-26T20:41:54.216Z,22.30
2018-04-26T20:44:33.650Z,22.30
2018-04-26T20:47:01.157Z,22.20
2018-04-26T20:49:29.426Z,22.10
2018-04-26T20:51:56.907Z,22.10
2018-04-26T20:54:25.345Z,22.20
2018-04-26T20:56:52.850Z,22.20
2018-04-26T20:59:20.372Z,22.20
2018-04-26T21:01:47.860Z,22.00
2018-04-26T21:04:15.364Z,22.00
2018-04-26T21:06:42.892Z,21.80
2018-04-26T21:09:10.414Z,21.70
2018-04-26T21:11:37.882Z,21.70
2018-04-26T21:14:06.225Z,21.70
2018-04-26T21:16:34.423Z,21.60
2018-04-26T21:19:02.138Z,21.60
2018-04-26T21:21:29.639Z,21.60
2018-04-26T21:23:57.222Z,21.50
2018-04-26T21:26:25.464Z,21.60
2018-04-26T21:28:53.728Z,21.60
2018-04-26T21:31:22.257Z,21.60
2018-04-26T21:33:50.530Z,21.70
2018-04-26T21:36:18.786Z,21.60
2018-04-26T21:38:47.804Z,21.60
2018-04-26T21:41:16.042Z,21.70
2018-04-26T21:43:43.529Z,21.60
2018-04-26T21:46:11.814Z,21.70
2018-04-26T21:48:39.316Z,21.70
2018-04-26T21:51:12.633Z,21.60
2018-04-26T21:53:47.466Z,21.60
2018-04-26T21:56:20.731Z,21.60
2018-04-26T21:58:54.033Z,21.70
2018-04-26T22:01:27.217Z,21.80
2018-04-26T22:04:09.597Z,21.70
2018-04-26T22:06:37.069Z,21.80
2018-04-26T22:09:04.561Z,21.90
2018-04-26T22:11:32.038Z,21.90
2018-04-26T22:14:00.258Z,22.00
2018-04-26T22:16:27.871Z,22.00
2018-04-26T22:18:55.324Z,22.00
2018-04-26T22:21:23.694Z,21.80
2018-04-26T22:23:51.249Z,21.80
2018-04-26T22:26:18.759Z,21.90
2018-04-26T22:28:47.080Z,21.80
2018-04-26T22:31:14.567Z,21.80
2018-04-26T22:33:42.808Z,21.90
2018-04-26T22:36:10.283Z,21.90
2018-04-26T22:38:37.781Z,21.90
2018-04-26T22:41:05.331Z,21.80
2018-04-26T22:43:32.846Z,22.00
2018-04-26T22:46:00.297Z,22.20
2018-04-26T22:48:27.789Z,22.30
2018-04-26T22:50:56.025Z,22.50
2018-04-26T22:53:23.494Z,22.50
2018-04-26T22:55:50.964Z,22.50
2018-04-26T22:58:19.215Z,22.60
2018-04-26T23:00:46.691Z,22.60
2018-04-26T23:03:14.141Z,22.70
2018-04-26T23:05:41.703Z,22.70
2018-04-26T23:08:09.135Z,22.70
2018-04-26T23:10:36.625Z,22.80
2018-04-26T23:13:04.095Z,22.80
2018-04-26T23:15:32.344Z,22.90
2018-04-26T23:17:59.908Z,22.80
2018-04-26T23:20:27.464Z,22.90
2018-04-26T23:22:54.916Z,22.90
2018-04-26T23:25:22.481Z,22.90
2018-04-26T23:27:50.047Z,22.90
2018-04-26T23:30:17.528Z,22.90
2018-04-26T23:32:45.763Z,22.90
2018-04-26T23:35:13.239Z,22.90
2018-04-26T23:37:40.803Z,22.90
2018-04-26T23:40:08.279Z,22.90
2018-04-26T23:42:36.612Z,22.90
2018-04-26T23:45:04.088Z,22.90
2018-04-26T23:47:31.546Z,22.90
2018-04-26T23:49:59.123Z,23.00
2018-04-26T23:52:27.427Z,23.00
2018-04-26T23:54:55.591Z,23.00
2018-04-26T23:57:23.056Z,23.00
2018-04-26T23:59:50.514Z,23.00
